Time;durP1;ratioP1;P1;durP2;ratioP2;P2;SDS_P1;SDS_P2;PMS_P1;PMS_P2;Temp;Humidity;BMP_temperature;BMP_pressure;BME280_temperature;BME280_humidity;BME280_pressure;Samples;Min_cycle;Max_cycle;Signal;HPM_P1;HPM_P2
2023/05/11 00:02:06;;;;;;;0.00;0.00;;;14.70;93.20;;;;;;5002166;28;20135;-75
2023/05/11 00:04:34;;;;;;;1.67;0.80;;;14.70;93.30;;;;;;5012709;28;20049;-75
2023/05/11 00:07:00;;;;;;;0.00;0.00;;;14.60;93.50;;;;;;5019168;28;20021;-75
2023/05/11 00:09:25;;;;;;;0.00;0.00;;;14.70;93.40;;;;;;5001066;28;20080;-75
2023/05/11 00:11:52;;;;;;;0.00;0.00;;;14.80;93.40;;;;;;5018531;28;20724;-74
2023/05/11 00:14:19;;;;;;;0.00;0.00;;;14.70;93.40;;;;;;5023175;28;20030;-75
2023/05/11 00:16:45;;;;;;;0.00;0.00;;;14.70;93.80;;;;;;5008343;28;20045;-74
2023/05/11 00:19:11;;;;;;;0.00;0.00;;;14.70;93.20;;;;;;5017574;28;20018;-75
2023/05/11 00:21:39;;;;;;;0.00;0.00;;;14.70;93.60;;;;;;5019674;28;20032;-76
2023/05/11 00:24:06;;;;;;;0.00;0.00;;;14.70;93.70;;;;;;5024161;28;20029;-74
2023/05/11 00:26:34;;;;;;;0.00;0.00;;;14.60;93.70;;;;;;5022522;28;20494;-74
2023/05/11 00:29:03;;;;;;;0.00;0.00;;;14.60;93.80;;;;;;5025990;28;20017;-74
2023/05/11 00:31:29;;;;;;;0.00;0.00;;;14.60;94.00;;;;;;5021259;28;20025;-74
2023/05/11 00:33:55;;;;;;;0.00;0.00;;;14.50;94.20;;;;;;5020813;28;20072;-75
2023/05/11 00:36:20;;;;;;;0.22;0.15;;;14.60;94.20;;;;;;5027045;28;20322;-74
2023/05/11 00:38:46;;;;;;;0.17;0.17;;;14.60;94.20;;;;;;5020655;28;20037;-74
2023/05/11 00:41:13;;;;;;;0.00;0.00;;;14.70;94.20;;;;;;5021431;28;20349;-74
2023/05/11 00:43:38;;;;;;;;;;;14.60;94.50;;;;;;5025144;28;20483;-74
2023/05/11 00:46:09;;;;;;;0.00;0.00;;;14.50;94.50;;;;;;5020739;28;19909;-74
2023/05/11 00:48:35;;;;;;;0.00;0.00;;;14.50;94.70;;;;;;5016356;28;20025;-75
2023/05/11 00:51:02;;;;;;;0.00;0.00;;;14.50;94.90;;;;;;5021142;28;20021;-75
2023/05/11 00:53:28;;;;;;;0.00;0.00;;;14.40;95.20;;;;;;5021245;28;20025;-74
2023/05/11 00:55:55;;;;;;;0.00;0.00;;;14.30;95.30;;;;;;5024158;28;20032;-74
2023/05/11 00:58:24;;;;;;;0.00;0.00;;;14.40;95.40;;;;;;5021451;28;20264;-74
2023/05/11 01:00:50;;;;;;;0.00;0.00;;;14.40;95.40;;;;;;5027627;28;20026;-75
2023/05/11 01:03:17;;;;;;;0.00;0.00;;;14.40;95.50;;;;;;5023791;28;20131;-75
2023/05/11 01:06:06;;;;;;;0.00;0.00;;;14.40;95.60;;;;;;5020307;28;20114;-75
2023/05/11 01:08:51;;;;;;;0.00;0.00;;;14.40;95.90;;;;;;5019843;28;20026;-75
2023/05/11 01:11:28;;;;;;;0.00;0.00;;;14.40;96.00;;;;;;5020640;28;20026;-75
2023/05/11 01:14:17;;;;;;;0.00;0.00;;;14.40;96.00;;;;;;5025148;28;20033;-74
2023/05/11 01:16:55;;;;;;;0.00;0.00;;;14.50;96.00;;;;;;5005980;28;20025;-75
2023/05/11 01:19:38;;;;;;;0.00;0.00;;;14.50;96.00;;;;;;5007833;28;20057;-76
2023/05/11 01:22:31;;;;;;;0.00;0.00;;;14.50;96.10;;;;;;5020430;28;20018;-74
2023/05/11 01:25:27;;;;;;;0.00;0.00;;;14.40;96.30;;;;;;5004236;28;20026;-75
2023/05/11 01:28:32;;;;;;;0.00;0.00;;;14.40;96.40;;;;;;5002812;28;20045;-75
2023/05/11 01:31:09;;;;;;;0.00;0.00;;;14.40;96.60;;;;;;5005454;28;20030;-75
2023/05/11 01:33:46;;;;;;;0.05;0.05;;;14.40;96.70;;;;;;5006339;28;20028;-75
2023/05/11 01:36:24;;;;;;;0.00;0.00;;;14.30;97.00;;;;;;5023897;28;20039;-75
2023/05/11 01:38:52;;;;;;;;;;;14.20;97.40;;;;;;5009663;28;20018;-75
2023/05/11 01:41:22;;;;;;;0.00;0.00;;;14.20;97.70;;;;;;5005397;28;19919;-74
2023/05/11 01:44:05;;;;;;;0.00;0.00;;;14.20;97.90;;;;;;5020384;28;20022;-75
2023/05/11 01:46:33;;;;;;;0.00;0.00;;;14.20;98.50;;;;;;5026830;28;20032;-75
2023/05/11 01:49:08;;;;;;;0.00;0.00;;;14.10;98.10;;;;;;5027007;28;20664;-74
2023/05/11 01:51:38;;;;;;;0.00;0.00;;;14.20;98.50;;;;;;5025810;28;20034;-75
2023/05/11 01:54:13;;;;;;;0.00;0.00;;;14.10;98.20;;;;;;5004811;28;20494;-75
2023/05/11 01:56:43;;;;;;;0.00;0.00;;;14.30;98.50;;;;;;5007295;28;20471;-75
2023/05/11 01:59:11;;;;;;;0.00;0.00;;;14.20;98.30;;;;;;5021235;28;20028;-74
2023/05/11 02:01:45;;;;;;;0.00;0.00;;;14.20;98.60;;;;;;5020728;28;20053;-75
2023/05/11 02:04:14;;;;;;;0.00;0.00;;;14.20;98.70;;;;;;5020524;28;20029;-74
2023/05/11 02:06:42;;;;;;;0.00;0.00;;;14.30;98.50;;;;;;5007283;28;20065;-75
2023/05/11 02:09:11;;;;;;;0.00;0.00;;;14.30;98.10;;;;;;5025271;28;20029;-73
2023/05/11 02:11:39;;;;;;;0.10;0.00;;;14.30;98.20;;;;;;5020128;28;20029;-74
2023/05/11 02:14:09;;;;;;;0.03;0.03;;;14.10;98.40;;;;;;5003582;28;20020;-75
2023/05/11 02:16:39;;;;;;;0.38;0.38;;;14.10;98.60;;;;;;5018826;28;20471;-74
2023/05/11 02:19:11;;;;;;;0.00;0.00;;;14.00;98.70;;;;;;5019509;28;20022;-74
2023/05/11 02:21:43;;;;;;;0.00;0.00;;;14.00;98.80;;;;;;5020819;28;20499;-74
2023/05/11 02:24:11;;;;;;;0.00;0.00;;;14.00;99.20;;;;;;5021404;28;20037;-75
2023/05/11 02:26:37;;;;;;;0.00;0.00;;;13.90;99.30;;;;;;5019571;28;20021;-75
2023/05/11 02:29:05;;;;;;;;;;;14.00;99.40;;;;;;5023727;28;20097;-75
2023/05/11 02:31:34;;;;;;;;;;;13.90;99.50;;;;;;5015900;28;19916;-74
2023/05/11 02:34:19;;;;;;;0.00;0.00;;;13.90;99.80;;;;;;5004511;28;20302;-75
2023/05/11 02:36:48;;;;;;;0.73;0.20;;;13.90;99.90;;;;;;5018789;28;20108;-74
2023/05/11 02:39:17;;;;;;;0.00;0.00;;;13.80;99.90;;;;;;5022471;28;20101;-74
2023/05/11 02:41:45;;;;;;;0.08;0.08;;;13.70;99.90;;;;;;5019594;28;20053;-75
2023/05/11 02:44:17;;;;;;;0.00;0.00;;;13.70;99.90;;;;;;5018942;28;20034;-74
2023/05/11 02:46:47;;;;;;;0.00;0.00;;;13.70;99.90;;;;;;5018105;28;20559;-75
2023/05/11 02:49:16;;;;;;;0.00;0.00;;;13.70;99.90;;;;;;5020140;28;20115;-74
2023/05/11 02:51:45;;;;;;;0.00;0.00;;;13.70;99.90;;;;;;5004148;28;20029;-75
2023/05/11 02:54:12;;;;;;;0.00;0.00;;;13.60;99.90;;;;;;5017534;28;20112;-75
2023/05/11 02:56:40;;;;;;;0.00;0.00;;;13.60;99.90;;;;;;5020860;28;20021;-74
2023/05/11 02:59:06;;;;;;;0.00;0.00;;;13.60;99.90;;;;;;5015913;28;20116;-74
2023/05/11 03:01:34;;;;;;;0.00;0.00;;;13.60;99.90;;;;;;5023060;28;20164;-74
2023/05/11 03:04:04;;;;;;;0.00;0.00;;;13.60;99.90;;;;;;5023783;28;20029;-74
2023/05/11 03:06:30;;;;;;;0.00;0.00;;;13.50;99.90;;;;;;5018006;28;20036;-74
2023/05/11 03:08:57;;;;;;;0.00;0.00;;;13.50;99.90;;;;;;5005280;28;20022;-75
2023/05/11 03:11:24;;;;;;;0.05;0.00;;;13.60;99.90;;;;;;5021215;28;20029;-75
2023/05/11 03:13:51;;;;;;;0.00;0.00;;;13.60;99.90;;;;;;5008400;28;20025;-75
2023/05/11 03:16:20;;;;;;;;;;;13.60;99.90;;;;;;5022175;28;20026;-74
2023/05/11 03:18:48;;;;;;;0.00;0.00;;;13.60;99.90;;;;;;5019358;28;19920;-75
2023/05/11 03:21:17;;;;;;;0.00;0.00;;;13.60;99.90;;;;;;5018904;28;20172;-74
2023/05/11 03:23:44;;;;;;;0.43;0.20;;;13.60;99.90;;;;;;5019506;28;20021;-74
2023/05/11 03:26:12;;;;;;;0.00;0.00;;;13.60;99.90;;;;;;5024215;28;20022;-75
2023/05/11 03:28:40;;;;;;;0.03;0.03;;;13.50;99.90;;;;;;5018788;28;20014;-74
2023/05/11 03:31:07;;;;;;;0.00;0.00;;;13.50;99.90;;;;;;5013037;28;20017;-75
2023/05/11 03:33:37;;;;;;;0.00;0.00;;;13.40;99.90;;;;;;5018979;28;20491;-74
2023/05/11 03:36:04;;;;;;;0.00;0.00;;;13.30;99.90;;;;;;5002518;28;20414;-75
2023/05/11 03:38:32;;;;;;;0.10;0.10;;;13.30;99.90;;;;;;5003042;28;20025;-75
2023/05/11 03:41:00;;;;;;;0.00;0.00;;;13.30;99.90;;;;;;5015365;28;20022;-75
2023/05/11 03:43:29;;;;;;;0.00;0.00;;;13.30;99.90;;;;;;5016813;28;20759;-74
2023/05/11 03:45:56;;;;;;;0.00;0.00;;;13.30;99.90;;;;;;5019668;28;20477;-75
2023/05/11 03:48:23;;;;;;;0.00;0.00;;;13.30;99.90;;;;;;5016438;28;20486;-75
2023/05/11 03:50:50;;;;;;;0.00;0.00;;;13.40;99.90;;;;;;5022570;28;20120;-74
2023/05/11 03:53:15;;;;;;;;;;;13.40;99.90;;;;;;5016142;28;20018;-75
2023/05/11 03:55:41;;;;;;;0.00;0.00;;;13.40;99.90;;;;;;5014432;28;19912;-75
2023/05/11 03:58:10;;;;;;;0.00;0.00;;;13.50;99.90;;;;;;5015459;28;20067;-74
2023/05/11 04:00:41;;;;;;;0.10;0.10;;;13.60;99.90;;;;;;5022844;28;20525;-74
2023/05/11 04:03:08;;;;;;;0.05;0.05;;;13.70;99.90;;;;;;5015572;28;20029;-74
2023/05/11 04:05:34;;;;;;;0.00;0.00;;;13.80;99.90;;;;;;5017075;28;20029;-74
2023/05/11 04:08:02;;;;;;;0.20;0.20;;;13.90;99.90;;;;;;5021685;28;20022;-75
2023/05/11 04:10:30;;;;;;;0.00;0.00;;;14.00;99.90;;;;;;5017804;28;20047;-74
2023/05/11 04:12:58;;;;;;;0.03;0.03;;;13.90;99.90;;;;;;5017005;28;20502;-74
2023/05/11 04:15:24;;;;;;;0.00;0.00;;;13.90;99.90;;;;;;5016280;28;20828;-75
2023/05/11 04:17:57;;;;;;;0.00;0.00;;;13.90;99.90;;;;;;5018304;28;20241;-75
2023/05/11 04:20:29;;;;;;;0.00;0.00;;;14.00;99.90;;;;;;5025381;28;20036;-74
2023/05/11 04:22:55;;;;;;;0.00;0.00;;;13.90;99.90;;;;;;5019964;28;20036;-74
2023/05/11 04:25:21;;;;;;;0.40;0.40;;;13.80;99.90;;;;;;5007397;28;20022;-74
2023/05/11 04:27:48;;;;;;;0.10;0.10;;;14.00;99.90;;;;;;5003988;28;20099;-74
2023/05/11 04:30:20;;;;;;;;;;;14.00;99.90;;;;;;4997639;28;20059;-75
2023/05/11 04:32:47;;;;;;;0.00;0.00;;;14.00;99.90;;;;;;5001399;28;19920;-75
2023/05/11 04:35:13;;;;;;;0.00;0.00;;;14.00;99.90;;;;;;5001144;28;20025;-74
2023/05/11 04:37:40;;;;;;;0.00;0.00;;;14.10;99.90;;;;;;5018365;28;20105;-75
2023/05/11 04:40:08;;;;;;;0.10;0.10;;;14.20;99.90;;;;;;5015587;28;20873;-75
2023/05/11 04:42:34;;;;;;;0.00;0.00;;;14.30;99.90;;;;;;5016220;28;20585;-75
2023/05/11 04:45:00;;;;;;;0.10;0.10;;;14.20;99.90;;;;;;5018239;28;20029;-75
2023/05/11 04:47:27;;;;;;;;;;;14.30;99.90;;;;;;5018646;28;20514;-75
2023/05/11 04:49:52;;;;;;;0.00;0.00;;;14.40;99.90;;;;;;5017467;28;19912;-75
2023/05/11 04:52:18;;;;;;;0.00;0.00;;;14.40;99.90;;;;;;5013935;28;21163;-75
2023/05/11 04:54:44;;;;;;;0.00;0.00;;;14.50;99.90;;;;;;5016651;28;20014;-75
2023/05/11 04:57:15;;;;;;;0.00;0.00;;;14.60;99.90;;;;;;5014927;28;20268;-75
2023/05/11 04:59:43;;;;;;;0.00;0.00;;;14.70;99.90;;;;;;5003338;28;20025;-75
2023/05/11 05:02:10;;;;;;;0.00;0.00;;;14.60;99.90;;;;;;5006486;28;20033;-75
2023/05/11 05:04:39;;;;;;;0.00;0.00;;;14.80;99.90;;;;;;5022935;28;20112;-74
2023/05/11 05:07:13;;;;;;;0.08;0.08;;;14.90;99.90;;;;;;5015688;28;20065;-75
2023/05/11 05:09:39;;;;;;;0.00;0.00;;;14.80;99.90;;;;;;5018928;28;20041;-75
2023/05/11 05:12:05;;;;;;;0.00;0.00;;;14.90;99.90;;;;;;5020912;28;20540;-75
2023/05/11 05:14:31;;;;;;;0.08;0.08;;;14.90;99.90;;;;;;5002942;28;20018;-76
2023/05/11 05:17:06;;;;;;;0.00;0.00;;;14.90;99.90;;;;;;5003810;28;20025;-75
2023/05/11 05:19:35;;;;;;;0.00;0.00;;;15.10;99.90;;;;;;5003335;28;20029;-75
2023/05/11 05:22:04;;;;;;;0.00;0.00;;;15.20;99.90;;;;;;5022218;28;20647;-75
2023/05/11 05:24:33;;;;;;;0.00;0.00;;;15.00;99.90;;;;;;5021637;28;20047;-75
2023/05/11 05:27:01;;;;;;;0.00;0.00;;;15.20;99.90;;;;;;5020624;28;20021;-76
2023/05/11 05:29:30;;;;;;;0.00;0.00;;;15.10;99.90;;;;;;5021000;28;20032;-76
2023/05/11 05:31:59;;;;;;;0.05;0.05;;;15.40;99.90;;;;;;5002071;28;20018;-75
2023/05/11 05:34:30;;;;;;;0.00;0.00;;;15.60;99.90;;;;;;5019428;28;20025;-75
2023/05/11 05:37:02;;;;;;;0.00;0.00;;;15.80;99.90;;;;;;5005951;28;20379;-75
2023/05/11 05:39:27;;;;;;;0.00;0.00;;;15.60;99.90;;;;;;5024988;28;20100;-75
2023/05/11 05:41:53;;;;;;;0.00;0.00;;;15.60;99.90;;;;;;5004762;28;20956;-75
2023/05/11 05:44:20;;;;;;;0.00;0.00;;;15.40;99.90;;;;;;5019411;28;20033;-75
2023/05/11 05:46:46;;;;;;;0.00;0.00;;;15.60;99.90;;;;;;5023082;28;20057;-75
2023/05/11 05:49:13;;;;;;;0.00;0.00;;;15.70;99.90;;;;;;5020709;28;20017;-75
2023/05/11 05:51:39;;;;;;;0.52;0.15;;;15.60;99.90;;;;;;5021253;28;20048;-74
2023/05/11 05:54:07;;;;;;;0.00;0.00;;;15.50;99.90;;;;;;5023820;28;20028;-75
2023/05/11 05:56:35;;;;;;;0.00;0.00;;;15.60;99.90;;;;;;5002686;28;20442;-75
2023/05/11 05:59:04;;;;;;;0.00;0.00;;;15.70;99.90;;;;;;5021160;28;20071;-75
2023/05/11 06:01:44;;;;;;;0.00;0.00;;;16.00;99.90;;;;;;5021562;28;20035;-75
2023/05/11 06:04:16;;;;;;;0.00;0.00;;;16.10;99.70;;;;;;5008700;28;20491;-75
2023/05/11 06:06:44;;;;;;;0.00;0.00;;;16.30;99.20;;;;;;5022113;28;20117;-75
2023/05/11 06:09:12;;;;;;;0.00;0.00;;;16.80;98.90;;;;;;5024996;28;20016;-75
2023/05/11 06:11:38;;;;;;;0.05;0.03;;;17.30;98.30;;;;;;5003608;28;20101;-76
2023/05/11 06:14:04;;;;;;;0.00;0.00;;;17.90;96.70;;;;;;5020796;28;20592;-75
2023/05/11 06:16:39;;;;;;;0.00;0.00;;;18.10;96.90;;;;;;5019385;28;20073;-75
2023/05/11 06:19:18;;;;;;;0.13;0.13;;;18.30;95.80;;;;;;4997706;28;20383;-75
2023/05/11 06:21:53;;;;;;;0.10;0.10;;;18.90;95.40;;;;;;5001532;28;20025;-75
2023/05/11 06:24:23;;;;;;;0.00;0.00;;;19.30;92.90;;;;;;5021592;28;20034;-76
2023/05/11 06:26:49;;;;;;;0.00;0.00;;;19.80;92.40;;;;;;5002073;28;20113;-78
2023/05/11 06:29:21;;;;;;;0.10;0.00;;;20.70;91.40;;;;;;5020789;28;20482;-78
2023/05/11 06:31:51;;;;;;;0.00;0.00;;;21.30;88.60;;;;;;5017756;28;20061;-78
2023/05/11 06:34:19;;;;;;;0.00;0.00;;;21.00;88.90;;;;;;5020475;28;20021;-78
2023/05/11 06:36:57;;;;;;;0.00;0.00;;;20.50;87.90;;;;;;5019599;28;20033;-77
2023/05/11 06:39:26;;;;;;;0.00;0.00;;;20.50;88.80;;;;;;5021660;28;20022;-78
2023/05/11 06:41:53;;;;;;;0.25;0.25;;;21.10;87.40;;;;;;5015249;28;20029;-77
2023/05/11 06:44:18;;;;;;;0.00;0.00;;;21.30;82.90;;;;;;5003588;28;20111;-78
2023/05/11 06:46:48;;;;;;;0.03;0.03;;;21.40;83.10;;;;;;5021643;28;20909;-78
2023/05/11 06:49:19;;;;;;;0.00;0.00;;;21.40;82.40;;;;;;5019856;28;20033;-78
2023/05/11 06:51:44;;;;;;;0.00;0.00;;;21.50;81.00;;;;;;5019392;28;20049;-78
2023/05/11 06:54:11;;;;;;;0.00;0.00;;;21.40;80.60;;;;;;5024795;28;20028;-78
2023/05/11 06:56:39;;;;;;;0.65;0.65;;;21.60;80.30;;;;;;5018623;28;20072;-77
2023/05/11 06:59:06;;;;;;;0.03;0.03;;;20.90;80.40;;;;;;5024012;28;20071;-78
2023/05/11 07:01:34;;;;;;;0.10;0.10;;;20.10;81.70;;;;;;5002506;28;20410;-78
2023/05/11 07:04:00;;;;;;;0.30;0.30;;;19.50;83.00;;;;;;5004158;28;20028;-76
2023/05/11 07:06:29;;;;;;;0.15;0.15;;;19.20;84.70;;;;;;5022833;28;20033;-75
2023/05/11 07:08:57;;;;;;;0.00;0.00;;;19.30;85.10;;;;;;5020217;28;20029;-75
2023/05/11 07:11:24;;;;;;;0.10;0.10;;;19.30;85.10;;;;;;5007898;28;20108;-75
2023/05/11 07:13:57;;;;;;;0.00;0.00;;;19.60;84.90;;;;;;5021489;28;20025;-75
2023/05/11 07:16:24;;;;;;;0.00;0.00;;;20.40;83.00;;;;;;5018975;28;20849;-75
2023/05/11 07:18:52;;;;;;;0.00;0.00;;;20.70;82.70;;;;;;5004355;28;20090;-75
2023/05/11 07:21:21;;;;;;;0.00;0.00;;;21.10;81.10;;;;;;5018687;28;20021;-76
2023/05/11 07:23:47;;;;;;;0.00;0.00;;;21.30;79.90;;;;;;5020222;28;20052;-75
2023/05/11 07:26:13;;;;;;;0.00;0.00;;;20.60;79.80;;;;;;5022693;28;20049;-75
2023/05/11 07:28:45;;;;;;;0.32;0.25;;;21.00;80.50;;;;;;5020621;28;20434;-75
2023/05/11 07:31:23;;;;;;;0.00;0.00;;;21.90;78.40;;;;;;5016864;28;20782;-75
2023/05/11 07:33:56;;;;;;;0.00;0.00;;;22.20;77.00;;;;;;5017946;28;20430;-75
2023/05/11 07:36:23;;;;;;;0.00;0.00;;;22.10;77.40;;;;;;5026355;28;20031;-75
2023/05/11 07:38:51;;;;;;;0.00;0.00;;;22.10;75.80;;;;;;5020355;28;20021;-75
2023/05/11 07:41:21;;;;;;;0.00;0.00;;;22.30;73.90;;;;;;5023305;28;20032;-76
2023/05/11 07:43:50;;;;;;;0.00;0.00;;;22.90;74.20;;;;;;5017986;28;20052;-75
2023/05/11 07:46:17;;;;;;;0.00;0.00;;;23.70;72.50;;;;;;5021818;28;20025;-78
2023/05/11 07:48:47;;;;;;;3.88;0.17;;;24.70;70.10;;;;;;5019362;28;20024;-78
2023/05/11 07:51:19;;;;;;;0.00;0.00;;;23.80;68.70;;;;;;5002712;28;20364;-78
2023/05/11 07:53:45;;;;;;;0.00;0.00;;;23.70;70.40;;;;;;5017546;28;20104;-77
2023/05/11 07:56:23;;;;;;;0.47;0.40;;;23.80;70.00;;;;;;5019021;28;20104;-78
2023/05/11 07:58:50;;;;;;;0.00;0.00;;;24.00;69.10;;;;;;5021622;28;20021;-78
2023/05/11 08:01:22;;;;;;;0.00;0.00;;;22.70;70.60;;;;;;5019106;28;20099;-78
2023/05/11 08:03:50;;;;;;;0.00;0.00;;;22.50;71.80;;;;;;5016022;28;20502;-78
2023/05/11 08:06:20;;;;;;;0.00;0.00;;;23.50;69.30;;;;;;5016541;28;20025;-78
2023/05/11 08:08:48;;;;;;;0.00;0.00;;;23.40;69.40;;;;;;5018125;28;20562;-78
2023/05/11 08:11:14;;;;;;;0.10;0.10;;;23.70;70.20;;;;;;5017669;28;20890;-78
2023/05/11 08:13:50;;;;;;;0.00;0.00;;;24.40;68.80;;;;;;5017121;28;20013;-78
2023/05/11 08:16:17;;;;;;;0.00;0.00;;;23.80;68.40;;;;;;5018705;28;20041;-78
2023/05/11 08:18:49;;;;;;;;;;;23.80;68.50;;;;;;5018306;28;20021;-77
2023/05/11 08:21:20;;;;;;;0.00;0.00;;;23.50;68.60;;;;;;5013973;28;20421;-78
2023/05/11 08:23:46;;;;;;;0.00;0.00;;;23.30;69.20;;;;;;5016650;28;20457;-78
2023/05/11 08:26:14;;;;;;;0.00;0.00;;;23.70;68.70;;;;;;5018078;28;20097;-78
2023/05/11 08:28:46;;;;;;;0.00;0.00;;;24.30;68.90;;;;;;5017725;28;20438;-77
2023/05/11 08:31:13;;;;;;;0.00;0.00;;;24.50;67.20;;;;;;5018624;28;20026;-78
2023/05/11 08:33:41;;;;;;;0.00;0.00;;;24.00;66.90;;;;;;5012801;28;20018;-78
2023/05/11 08:36:07;;;;;;;0.30;0.08;;;23.70;68.20;;;;;;5021086;28;20022;-77
2023/05/11 08:38:40;;;;;;;0.10;0.10;;;24.40;67.50;;;;;;5013559;28;20119;-78
2023/05/11 08:41:06;;;;;;;0.22;0.13;;;24.10;67.50;;;;;;5016447;28;20133;-77
2023/05/11 08:43:35;;;;;;;;;;;22.70;70.30;;;;;;5018892;28;20021;-77
2023/05/11 08:46:03;;;;;;;0.00;0.00;;;22.20;70.50;;;;;;5022206;28;19944;-78
2023/05/11 08:48:39;;;;;;;0.13;0.03;;;21.40;73.30;;;;;;5019768;28;20014;-78
2023/05/11 08:51:08;;;;;;;0.00;0.00;;;21.60;72.90;;;;;;5003771;28;20056;-77
2023/05/11 08:53:41;;;;;;;0.00;0.00;;;21.50;72.70;;;;;;5003216;28;20108;-78
2023/05/11 08:56:10;;;;;;;0.00;0.00;;;22.10;72.20;;;;;;5022225;28;20108;-77
2023/05/11 08:58:39;;;;;;;0.00;0.00;;;22.90;70.90;;;;;;5021455;28;20030;-78
2023/05/11 09:01:11;;;;;;;0.00;0.00;;;23.10;70.00;;;;;;5019816;28;20501;-78
2023/05/11 09:03:40;;;;;;;0.00;0.00;;;22.80;69.50;;;;;;4997160;28;20021;-77
2023/05/11 09:06:07;;;;;;;1.55;0.15;;;22.30;70.10;;;;;;5019653;28;20026;-78
2023/05/11 09:08:37;;;;;;;0.00;0.00;;;21.70;71.00;;;;;;5022832;28;20033;-78
2023/05/11 09:11:05;;;;;;;0.00;0.00;;;22.00;72.20;;;;;;5014675;28;20531;-77
2023/05/11 09:13:37;;;;;;;0.08;0.08;;;22.10;70.60;;;;;;5019846;28;20463;-78
2023/05/11 09:16:03;;;;;;;0.00;0.00;;;22.50;69.20;;;;;;5019581;28;20026;-78
2023/05/11 09:18:31;;;;;;;0.00;0.00;;;22.70;69.50;;;;;;5019957;28;20025;-78
2023/05/11 09:21:00;;;;;;;0.00;0.00;;;22.50;69.00;;;;;;5019757;28;20044;-78
2023/05/11 09:23:27;;;;;;;0.00;0.00;;;21.80;68.80;;;;;;5004267;28;20083;-78
2023/05/11 09:25:53;;;;;;;0.00;0.00;;;21.90;70.30;;;;;;5021466;28;20083;-78
2023/05/11 09:28:26;;;;;;;0.00;0.00;;;21.10;69.70;;;;;;5019238;28;20329;-78
2023/05/11 09:30:52;;;;;;;0.00;0.00;;;20.30;71.30;;;;;;5021082;28;20506;-77
2023/05/11 09:33:23;;;;;;;0.00;0.00;;;19.80;73.20;;;;;;5012904;28;20534;-78
2023/05/11 09:35:48;;;;;;;0.00;0.00;;;19.30;73.30;;;;;;5017033;28;20026;-78
2023/05/11 09:38:22;;;;;;;0.00;0.00;;;19.30;74.00;;;;;;5019926;28;20827;-77
2023/05/11 09:40:54;;;;;;;0.22;0.22;;;19.50;73.80;;;;;;4999352;28;20028;-78
2023/05/11 09:43:27;;;;;;;0.00;0.00;;;19.20;71.40;;;;;;5020041;28;20220;-78
2023/05/11 09:46:00;;;;;;;0.00;0.00;;;19.10;71.90;;;;;;5020174;28;20390;-77
2023/05/11 09:48:28;;;;;;;0.00;0.00;;;19.00;72.20;;;;;;5002514;28;20033;-79
2023/05/11 09:51:05;;;;;;;0.08;0.08;;;19.40;71.40;;;;;;5022846;28;20064;-77
2023/05/11 09:53:44;;;;;;;0.10;0.10;;;19.90;71.00;;;;;;5017201;28;20026;-77
2023/05/11 09:56:14;;;;;;;0.00;0.00;;;20.40;70.90;;;;;;5015970;28;20795;-78
2023/05/11 09:58:53;;;;;;;0.00;0.00;;;20.80;69.70;;;;;;5020477;28;20033;-77
2023/05/11 10:01:33;;;;;;;0.13;0.13;;;21.60;67.90;;;;;;5019400;28;20143;-79
2023/05/11 10:04:08;;;;;;;0.00;0.00;;;21.60;66.80;;;;;;5005804;28;20374;-77
2023/05/11 10:06:49;;;;;;;0.00;0.00;;;21.20;68.20;;;;;;5018196;28;20025;-78
2023/05/11 10:09:18;;;;;;;0.08;0.08;;;20.50;68.50;;;;;;5001682;28;20025;-78
2023/05/11 10:11:45;;;;;;;0.00;0.00;;;20.10;68.70;;;;;;5019812;28;20022;-77
2023/05/11 10:14:18;;;;;;;0.00;0.00;;;20.10;69.90;;;;;;5019517;28;20028;-78
2023/05/11 10:16:50;;;;;;;0.03;0.03;;;19.90;69.70;;;;;;5020099;28;20483;-77
2023/05/11 10:19:21;;;;;;;0.00;0.00;;;20.30;68.50;;;;;;5015490;28;20030;-78
2023/05/11 10:21:47;;;;;;;0.00;0.00;;;21.40;66.90;;;;;;5019962;28;20108;-78
2023/05/11 10:24:16;;;;;;;0.00;0.00;;;22.30;64.90;;;;;;5018785;28;20021;-77
2023/05/11 10:26:43;;;;;;;0.00;0.00;;;21.40;65.90;;;;;;5019533;28;20079;-78
2023/05/11 10:29:12;;;;;;;0.00;0.00;;;22.80;66.70;;;;;;5023088;28;20025;-78
2023/05/11 10:31:40;;;;;;;0.45;0.15;;;24.10;62.30;;;;;;5019165;28;20014;-78
2023/05/11 10:34:06;;;;;;;0.00;0.00;;;24.80;61.90;;;;;;5019269;28;20404;-78
2023/05/11 10:36:33;;;;;;;0.00;0.00;;;26.10;58.60;;;;;;5020355;28;20493;-78
2023/05/11 10:39:10;;;;;;;0.00;0.00;;;26.30;60.20;;;;;;5021881;28;20100;-78
2023/05/11 10:42:03;;;;;;;0.10;0.10;;;24.60;60.30;;;;;;5002874;28;20115;-79
2023/05/11 10:44:43;;;;;;;0.00;0.00;;;24.40;61.00;;;;;;5006345;28;20048;-78
2023/05/11 10:47:44;;;;;;;0.00;0.00;;;22.90;62.10;;;;;;5007868;28;20025;-78
2023/05/11 10:50:37;;;;;;;0.30;0.22;;;22.90;63.00;;;;;;5018122;28;20121;-78
2023/05/11 10:53:30;;;;;;;0.00;0.00;;;23.20;62.50;;;;;;5020523;28;20026;-78
2023/05/11 10:56:11;;;;;;;0.00;0.00;;;23.20;63.10;;;;;;5014548;28;20706;-78
2023/05/11 10:58:56;;;;;;;0.00;0.00;;;22.30;65.00;;;;;;5016870;28;20025;-78
2023/05/11 11:01:33;;;;;;;0.00;0.00;;;20.30;68.50;;;;;;4998838;28;20017;-77
2023/05/11 11:04:05;;;;;;;0.00;0.00;;;19.60;71.10;;;;;;5019938;28;20201;-77
2023/05/11 11:06:33;;;;;;;0.43;0.22;;;19.30;71.80;;;;;;5018672;28;20025;-78
2023/05/11 11:09:07;;;;;;;0.00;0.00;;;19.50;71.40;;;;;;5007987;28;20048;-78
2023/05/11 11:11:44;;;;;;;0.00;0.00;;;19.40;70.70;;;;;;5019313;28;20265;-77
2023/05/11 11:14:13;;;;;;;0.00;0.00;;;19.30;71.50;;;;;;5012899;28;20018;-79
2023/05/11 11:16:40;;;;;;;0.10;0.00;;;19.00;72.00;;;;;;5016399;28;20176;-78
2023/05/11 11:19:37;;;;;;;0.00;0.00;;;18.90;72.70;;;;;;5016821;28;20120;-77
2023/05/11 11:22:03;;;;;;;0.00;0.00;;;18.90;72.20;;;;;;5000798;28;20033;-78
2023/05/11 11:24:37;;;;;;;0.20;0.13;;;18.90;72.80;;;;;;5019919;28;20036;-77
2023/05/11 11:27:08;;;;;;;0.00;0.00;;;18.90;72.40;;;;;;4999998;28;20030;-77
2023/05/11 11:29:37;;;;;;;0.00;0.00;;;18.90;72.90;;;;;;5020941;28;20479;-78
2023/05/11 11:32:18;;;;;;;0.00;0.00;;;18.80;72.70;;;;;;5024413;28;20033;-78
2023/05/11 11:34:47;;;;;;;0.00;0.00;;;19.10;72.20;;;;;;5022306;28;20121;-77
2023/05/11 11:37:17;;;;;;;0.00;0.00;;;19.60;71.30;;;;;;5003173;28;20554;-78
2023/05/11 11:39:43;;;;;;;0.00;0.00;;;20.00;71.00;;;;;;5021948;28;20053;-77
2023/05/11 11:42:10;;;;;;;0.00;0.00;;;20.10;70.40;;;;;;5018345;28;20056;-77
2023/05/11 11:44:44;;;;;;;0.00;0.00;;;20.00;69.60;;;;;;5018387;28;20079;-78
2023/05/11 11:47:15;;;;;;;0.00;0.00;;;20.10;68.70;;;;;;5017104;28;20936;-79
2023/05/11 11:49:48;;;;;;;0.03;0.03;;;19.80;69.50;;;;;;5019808;28;20018;-78
2023/05/11 11:52:26;;;;;;;1.27;0.22;;;19.60;69.80;;;;;;5023934;28;20029;-77
2023/05/11 11:54:54;;;;;;;0.00;0.00;;;19.50;70.70;;;;;;5019652;28;20018;-78
2023/05/11 11:57:32;;;;;;;0.00;0.00;;;19.60;69.80;;;;;;5008292;28;21553;-78
2023/05/11 12:00:10;;;;;;;0.00;0.00;;;20.00;68.80;;;;;;5020202;28;20029;-78
2023/05/11 12:02:45;;;;;;;0.00;0.00;;;20.00;69.70;;;;;;5003204;28;20026;-78
2023/05/11 12:05:21;;;;;;;0.00;0.00;;;20.00;68.30;;;;;;4998588;28;20025;-78
2023/05/11 12:07:50;;;;;;;0.00;0.00;;;20.00;69.00;;;;;;5021940;28;20022;-78
2023/05/11 12:10:28;;;;;;;0.00;0.00;;;20.00;68.80;;;;;;5007361;28;20026;-77
2023/05/11 12:12:56;;;;;;;0.00;0.00;;;20.30;68.60;;;;;;5020422;28;20040;-78
2023/05/11 12:15:31;;;;;;;0.00;0.00;;;20.60;68.00;;;;;;5018201;28;20022;-78
2023/05/11 12:17:57;;;;;;;0.00;0.00;;;20.40;66.80;;;;;;5018668;28;20083;-78
2023/05/11 12:20:24;;;;;;;0.00;0.00;;;20.60;67.00;;;;;;5023746;28;20032;-77
2023/05/11 12:22:52;;;;;;;0.05;0.05;;;20.40;66.60;;;;;;5007613;28;20057;-79
2023/05/11 12:25:24;;;;;;;0.00;0.00;;;20.10;67.40;;;;;;5008629;28;20598;-77
2023/05/11 12:27:54;;;;;;;0.00;0.00;;;20.10;68.10;;;;;;5021820;28;20542;-79
2023/05/11 12:30:30;;;;;;;0.00;0.00;;;19.90;67.50;;;;;;5022367;28;20111;-77
2023/05/11 12:33:13;;;;;;;0.00;0.00;;;20.00;68.50;;;;;;5017662;28;20375;-78
2023/05/11 12:35:42;;;;;;;0.00;0.00;;;20.20;68.00;;;;;;5021754;28;20032;-79
2023/05/11 12:38:14;;;;;;;0.00;0.00;;;19.80;68.10;;;;;;5021758;28;20668;-78
2023/05/11 12:40:50;;;;;;;0.00;0.00;;;19.60;68.00;;;;;;5025097;28;20490;-77
2023/05/11 12:43:20;;;;;;;0.00;0.00;;;19.50;68.60;;;;;;5021818;28;20022;-78
2023/05/11 12:45:46;;;;;;;0.40;0.15;;;19.80;68.60;;;;;;5020715;28;20053;-78
2023/05/11 12:48:21;;;;;;;0.00;0.00;;;19.60;67.40;;;;;;5007776;28;20104;-78
2023/05/11 12:50:48;;;;;;;0.00;0.00;;;19.60;66.90;;;;;;5025132;28;20033;-79
2023/05/11 12:53:18;;;;;;;0.00;0.00;;;19.50;67.70;;;;;;5021884;28;20116;-77
2023/05/11 12:55:56;;;;;;;0.00;0.00;;;19.80;68.10;;;;;;5009465;28;20031;-78
2023/05/11 12:58:22;;;;;;;0.20;0.20;;;20.00;67.70;;;;;;5022392;28;20021;-78
2023/05/11 13:00:58;;;;;;;0.10;0.10;;;19.90;67.50;;;;;;5022840;28;20025;-78
2023/05/11 13:03:29;;;;;;;0.00;0.00;;;20.00;68.00;;;;;;5007635;28;20033;-77
2023/05/11 13:06:11;;;;;;;0.00;0.00;;;19.90;67.80;;;;;;5021939;28;20021;-78
2023/05/11 13:08:42;;;;;;;0.00;0.00;;;19.80;67.50;;;;;;5019670;28;20017;-79